Time;durP1;ratioP1;P1;durP2;ratioP2;P2;SDS_P1;SDS_P2;PMS_P1;PMS_P2;Temp;Humidity;BMP_temperature;BMP_pressure;BME280_temperature;BME280_humidity;BME280_pressure;Samples;Min_cycle;Max_cycle;Signal;HPM_P1;HPM_P2
2023/03/23 00:02:14;;;;;;;4.70;2.10;;;;;;;11.19;100.00;100115.91;10344471;28;20493;-76
2023/03/23 00:07:20;;;;;;;5.22;1.92;;;;;;;11.18;100.00;100110.59;10345976;28;20045;-76
2023/03/23 00:12:28;;;;;;;8.23;4.35;;;;;;;11.16;100.00;100115.78;10344849;28;20173;-76
2023/03/23 00:17:29;;;;;;;6.97;3.22;;;;;;;11.05;100.00;100114.53;10330562;28;20049;-76
2023/03/23 00:22:29;;;;;;;5.28;2.35;;;;;;;11.03;100.00;100109.25;10321108;28;20041;-76
2023/03/23 00:27:30;;;;;;;6.75;2.25;;;;;;;11.14;100.00;100105.25;10348716;28;20137;-76
2023/03/23 00:32:31;;;;;;;4.15;2.42;;;;;;;11.10;100.00;100108.59;10337596;28;20044;-76
2023/03/23 00:37:31;;;;;;;6.38;2.75;;;;;;;11.14;100.00;100093.91;10333705;28;20099;-76
2023/03/23 00:42:36;;;;;;;6.32;2.42;;;;;;;11.01;100.00;100100.44;10319710;28;20499;-76
2023/03/23 00:47:37;;;;;;;7.47;2.85;;;;;;;11.13;100.00;100103.47;10315412;28;20038;-76
2023/03/23 00:52:37;;;;;;;11.05;3.67;;;;;;;11.12;100.00;100087.72;10323912;28;20041;-76
2023/03/23 00:57:38;;;;;;;3.67;2.13;;;;;;;11.16;100.00;100097.47;10340385;28;20138;-75
2023/03/23 01:02:40;;;;;;;4.85;2.53;;;;;;;11.15;100.00;100101.78;10337235;28;20121;-76
2023/03/23 01:07:41;;;;;;;3.88;2.33;;;;;;;11.14;100.00;100102.63;10325736;28;20034;-75
2023/03/23 01:12:43;;;;;;;5.05;2.60;;;;;;;11.13;100.00;100090.38;10321848;28;20069;-76
2023/03/23 01:17:44;;;;;;;4.50;2.47;;;;;;;11.13;100.00;100089.50;10307130;28;20477;-76
2023/03/23 01:22:44;;;;;;;4.70;3.13;;;;;;;11.10;100.00;100071.94;10312200;28;20042;-76
2023/03/23 01:27:45;;;;;;;5.88;2.90;;;;;;;11.14;100.00;100057.25;10330005;28;20126;-77
2023/03/23 01:32:46;;;;;;;6.05;3.53;;;;;;;11.19;100.00;100076.59;10321245;28;20125;-76
2023/03/23 01:37:47;;;;;;;6.93;2.83;;;;;;;11.21;100.00;100064.44;10342505;28;20133;-76
2023/03/23 01:42:48;;;;;;;4.70;2.73;;;;;;;11.16;100.00;100077.38;10323813;28;20038;-76
2023/03/23 01:47:55;;;;;;;3.75;2.50;;;;;;;11.16;100.00;100048.56;10331609;28;20165;-76
2023/03/23 01:52:56;;;;;;;5.55;3.92;;;;;;;11.07;100.00;100058.75;10318173;28;20035;-76
2023/03/23 01:57:57;;;;;;;7.00;3.13;;;;;;;11.07;100.00;100057.88;10321090;28;20074;-76
2023/03/23 02:02:57;;;;;;;7.95;3.30;;;;;;;10.99;100.00;100060.22;10306443;28;20472;-76
2023/03/23 02:08:02;;;;;;;4.28;2.60;;;;;;;10.94;100.00;100069.66;10324343;28;20046;-76
2023/03/23 02:13:04;;;;;;;8.30;4.20;;;;;;;11.02;100.00;100060.34;10286081;28;20092;-77
2023/03/23 02:18:49;;;;;;;10.20;4.00;;;;;;;11.02;100.00;100048.16;10293817;28;20042;-76
2023/03/23 02:24:27;;;;;;;4.78;2.92;;;;;;;10.95;100.00;100040.03;10316848;28;20515;-75
2023/03/23 02:29:52;;;;;;;8.02;3.80;;;;;;;10.87;100.00;100048.50;10332302;28;20061;-76
2023/03/23 02:34:53;;;;;;;6.43;3.00;;;;;;;10.95;100.00;100024.31;10334771;28;20515;-75
2023/03/23 02:40:28;;;;;;;6.67;2.97;;;;;;;10.92;100.00;100029.44;10341996;28;20040;-76
2023/03/23 02:45:29;;;;;;;4.97;3.03;;;;;;;10.87;100.00;100022.34;10334983;28;20277;-76
2023/03/23 02:50:30;;;;;;;6.75;3.03;;;;;;;10.83;100.00;100033.53;10321978;28;20117;-76
2023/03/23 02:55:30;;;;;;;4.88;3.13;;;;;;;10.84;100.00;100022.22;10304520;28;20117;-76
2023/03/23 03:00:31;;;;;;;5.28;3.10;;;;;;;10.79;100.00;100018.56;10334742;28;20092;-76
2023/03/23 03:05:38;;;;;;;5.35;2.58;;;;;;;10.84;100.00;100026.59;10334528;28;20049;-76
2023/03/23 03:10:59;;;;;;;5.07;2.75;;;;;;;10.90;100.00;100025.88;10321340;28;20125;-75
2023/03/23 03:16:04;;;;;;;7.07;2.90;;;;;;;10.95;100.00;100017.38;10300659;28;20537;-76
2023/03/23 03:21:06;;;;;;;7.05;3.13;;;;;;;10.99;100.00;100016.63;10285484;28;20445;-76
2023/03/23 03:26:09;;;;;;;;;;;;;;;11.01;100.00;100003.56;10297817;28;20161;-75
2023/03/23 03:31:10;;;;;;;4.68;3.08;;;;;;;10.99;100.00;100002.63;10339676;28;19922;-75
2023/03/23 03:36:18;;;;;;;5.75;3.38;;;;;;;10.93;100.00;100011.19;10289452;28;20046;-76
2023/03/23 03:41:19;;;;;;;4.78;2.60;;;;;;;10.95;100.00;100022.59;10326806;28;20101;-76
2023/03/23 03:46:19;;;;;;;5.93;2.58;;;;;;;11.00;100.00;100014.88;10325409;28;20410;-76
2023/03/23 03:51:20;;;;;;;3.47;2.45;;;;;;;10.95;100.00;100012.13;10327384;28;20121;-76
2023/03/23 03:56:21;;;;;;;3.70;2.40;;;;;;;10.94;100.00;100023.44;10320019;28;20042;-76
2023/03/23 04:01:22;;;;;;;4.93;2.23;;;;;;;10.99;100.00;100023.56;10330128;28;20061;-76
2023/03/23 04:06:23;;;;;;;8.25;2.72;;;;;;;10.97;100.00;100020.91;10312456;28;20046;-76
2023/03/23 04:11:24;;;;;;;4.70;2.67;;;;;;;10.94;100.00;100006.81;10326583;28;20554;-75
2023/03/23 04:16:26;;;;;;;4.82;2.63;;;;;;;10.95;100.00;100008.59;10325365;28;20042;-76
2023/03/23 04:21:28;;;;;;;5.93;2.40;;;;;;;10.98;100.00;100012.22;10324306;28;20038;-76
2023/03/23 04:26:29;;;;;;;6.07;2.08;;;;;;;11.04;100.00;100031.59;10304691;28;20097;-77
2023/03/23 04:31:29;;;;;;;3.85;2.17;;;;;;;11.01;100.00;100033.28;10340274;28;20430;-76
2023/03/23 04:36:30;;;;;;;5.20;2.35;;;;;;;10.97;100.00;100034.00;10338352;28;20121;-77
2023/03/23 04:41:30;;;;;;;4.28;2.30;;;;;;;11.00;100.00;100036.72;10330545;28;20136;-77
2023/03/23 04:46:31;;;;;;;6.25;2.33;;;;;;;11.00;100.00;100047.19;10332748;28;20042;-76
2023/03/23 04:51:31;;;;;;;5.80;2.35;;;;;;;11.01;100.00;100045.47;10362983;28;20512;-76
2023/03/23 04:56:32;;;;;;;5.88;2.20;;;;;;;11.06;100.00;100043.00;10361527;28;20049;-76
2023/03/23 05:01:34;;;;;;;4.00;2.47;;;;;;;11.13;100.00;100056.34;10342935;28;20113;-76
2023/03/23 05:06:35;;;;;;;10.02;2.22;;;;;;;11.09;100.00;100057.06;10343950;28;20042;-76
2023/03/23 05:11:35;;;;;;;2.50;1.70;;;;;;;11.18;100.00;100058.22;10339449;28;20046;-75
2023/03/23 05:16:37;;;;;;;5.13;1.88;;;;;;;11.13;100.00;100056.34;10341619;28;20196;-76
2023/03/23 05:21:37;;;;;;;3.03;1.83;;;;;;;11.12;100.00;100059.78;10322040;28;20046;-76
2023/03/23 05:26:38;;;;;;;6.35;2.25;;;;;;;11.10;100.00;100058.84;10288340;28;20041;-76
2023/03/23 05:31:39;;;;;;;3.83;1.92;;;;;;;11.11;100.00;100041.44;10338419;28;20125;-76
2023/03/23 05:36:40;;;;;;;4.85;2.28;;;;;;;11.12;100.00;100062.41;10308327;28;20045;-75
2023/03/23 05:41:40;;;;;;;6.85;3.22;;;;;;;11.14;100.00;100065.09;10325970;28;20053;-75
2023/03/23 05:46:41;;;;;;;7.10;2.80;;;;;;;11.21;100.00;100074.94;10354699;28;20449;-75
2023/03/23 05:51:43;;;;;;;6.65;2.20;;;;;;;11.21;100.00;100063.53;10341331;28;20129;-76
2023/03/23 05:56:44;;;;;;;5.28;2.38;;;;;;;11.21;100.00;100072.31;10341533;28;20091;-77
2023/03/23 06:01:44;;;;;;;6.35;2.40;;;;;;;11.19;100.00;100071.38;10335170;28;20050;-75
2023/03/23 06:06:45;;;;;;;8.32;2.65;;;;;;;11.19;100.00;100067.84;10322226;28;20042;-75
2023/03/23 06:11:47;;;;;;;6.15;3.03;;;;;;;11.22;100.00;100062.72;10309925;28;20058;-77
2023/03/23 06:16:47;;;;;;;23.38;9.80;;;;;;;11.22;100.00;100062.72;10330002;28;20137;-75
2023/03/23 06:21:48;;;;;;;10.20;4.15;;;;;;;11.17;100.00;100065.19;10325166;28;20046;-76
2023/03/23 06:26:49;;;;;;;10.68;3.63;;;;;;;11.26;100.00;100075.06;10351658;28;20045;-76
2023/03/23 06:31:54;;;;;;;4.37;1.93;;;;;;;11.27;100.00;100089.94;10334547;28;20378;-77
2023/03/23 06:36:55;;;;;;;8.35;1.58;;;;;;;11.40;100.00;100097.34;10334561;28;20056;-75
2023/03/23 06:41:57;;;;;;;4.23;1.53;;;;;;;11.44;100.00;100094.00;10351106;28;20551;-75
2023/03/23 06:46:57;;;;;;;9.50;1.65;;;;;;;11.46;100.00;100107.16;10316737;28;20025;-75
2023/03/23 06:52:00;;;;;;;4.13;1.60;;;;;;;11.42;100.00;100110.50;10330328;28;20132;-75
2023/03/23 06:57:00;;;;;;;3.08;1.70;;;;;;;11.41;100.00;100119.22;10342015;28;20050;-75
2023/03/23 07:02:01;;;;;;;2.42;1.27;;;;;;;11.53;100.00;100118.69;10323688;28;20133;-76
2023/03/23 07:07:02;;;;;;;7.38;1.73;;;;;;;11.60;100.00;100124.19;10305222;28;20132;-75
2023/03/23 07:12:02;;;;;;;8.02;3.00;;;;;;;11.63;100.00;100114.66;10292326;28;20049;-76
2023/03/23 07:17:03;;;;;;;2.67;1.88;;;;;;;11.74;100.00;100105.41;10342907;28;20409;-75
2023/03/23 07:22:05;;;;;;;6.63;2.33;;;;;;;11.71;100.00;100106.19;10342483;28;20050;-75
2023/03/23 07:27:05;;;;;;;4.25;1.55;;;;;;;11.62;100.00;100116.38;10315297;28;20121;-75
2023/03/23 07:32:06;;;;;;;23.77;14.85;;;;;;;11.71;100.00;100126.28;10327419;28;20108;-75
2023/03/23 07:37:07;;;;;;;5.55;3.38;;;;;;;11.84;100.00;100117.94;10316867;28;20041;-75
2023/03/23 07:42:10;;;;;;;2.90;1.80;;;;;;;11.82;100.00;100123.97;10334518;28;20122;-75
2023/03/23 07:47:11;;;;;;;6.00;1.52;;;;;;;11.87;100.00;100122.38;10364662;28;20042;-75
2023/03/23 07:52:12;;;;;;;4.00;1.92;;;;;;;12.01;100.00;100128.97;10302560;28;20037;-75
2023/03/23 07:57:13;;;;;;;10.07;2.00;;;;;;;12.04;100.00;100138.66;10317857;28;20038;-75
2023/03/23 08:02:14;;;;;;;5.80;2.22;;;;;;;12.07;100.00;100130.88;10347450;28;20049;-75
2023/03/23 08:07:16;;;;;;;6.82;2.65;;;;;;;12.21;100.00;100133.91;10323238;28;20099;-75
2023/03/23 08:12:16;;;;;;;3.53;2.25;;;;;;;12.45;100.00;100135.44;10311767;28;20374;-75
2023/03/23 08:17:17;;;;;;;7.05;2.28;;;;;;;12.57;100.00;100137.53;10309556;28;20039;-75
2023/03/23 08:22:18;;;;;;;4.35;2.03;;;;;;;12.44;100.00;100152.94;10339398;28;20042;-76
2023/03/23 08:27:18;;;;;;;4.30;1.50;;;;;;;12.30;100.00;100144.66;10317475;28;20046;-75
2023/03/23 08:32:19;;;;;;;4.05;2.10;;;;;;;12.11;100.00;100159.00;10308109;28;20070;-75
2023/03/23 08:37:19;;;;;;;4.65;1.98;;;;;;;11.88;100.00;100208.06;10342053;28;20038;-75
2023/03/23 08:42:20;;;;;;;3.78;1.58;;;;;;;10.75;100.00;100228.69;10331659;28;20062;-74
2023/03/23 08:47:20;;;;;;;3.30;0.90;;;;;;;9.54;100.00;100242.28;10345782;28;20165;-75
2023/03/23 08:52:21;;;;;;;4.57;2.30;;;;;;;8.95;100.00;100251.13;10363637;28;20125;-73
2023/03/23 08:57:21;;;;;;;4.47;1.80;;;;;;;8.74;100.00;100279.75;10317010;28;20344;-74
2023/03/23 09:02:23;;;;;;;2.03;0.77;;;;;;;8.66;100.00;100299.38;10361526;28;20196;-75
2023/03/23 09:07:24;;;;;;;1.63;0.88;;;;;;;8.59;100.00;100302.50;10345096;28;20034;-74
2023/03/23 09:12:24;;;;;;;4.63;2.17;;;;;;;8.46;100.00;100306.25;10316677;28;20034;-74
2023/03/23 09:17:25;;;;;;;4.70;1.33;;;;;;;8.38;100.00;100317.22;10361919;28;20450;-74
2023/03/23 09:22:26;;;;;;;3.03;0.98;;;;;;;8.37;100.00;100309.28;10361519;28;20041;-74
2023/03/23 09:27:27;;;;;;;3.38;1.83;;;;;;;8.47;100.00;100323.69;10361795;28;20041;-74
2023/03/23 09:32:27;;;;;;;2.85;0.90;;;;;;;8.36;100.00;100330.97;10321055;28;20033;-74
2023/03/23 09:37:29;;;;;;;2.58;1.70;;;;;;;8.25;100.00;100326.97;10316672;28;20176;-74
2023/03/23 09:42:47;;;;;;;3.10;1.00;;;;;;;8.30;100.00;100315.03;10360026;28;20029;-74
2023/03/23 09:48:04;;;;;;;4.10;1.10;;;;;;;8.51;100.00;100323.03;10361817;28;20053;-74
2023/03/23 09:53:18;;;;;;;3.63;1.02;;;;;;;8.54;100.00;100322.28;10312658;28;20516;-74
2023/03/23 09:58:25;;;;;;;2.58;0.60;;;;;;;8.55;100.00;100318.84;10338763;28;20757;-75
2023/03/23 10:03:37;;;;;;;2.50;0.70;;;;;;;8.85;100.00;100336.75;10302420;28;20554;-75
2023/03/23 10:08:42;;;;;;;1.97;1.00;;;;;;;8.76;100.00;100317.22;10318568;28;20504;-74
2023/03/23 10:14:27;;;;;;;2.08;1.48;;;;;;;9.02;100.00;100312.31;10327820;28;20038;-74
2023/03/23 10:19:30;;;;;;;4.82;0.93;;;;;;;9.05;100.00;100314.19;10216992;28;20134;-74
2023/03/23 10:24:52;;;;;;;3.00;1.67;;;;;;;9.07;100.00;100341.25;10257032;28;20057;-74
2023/03/23 10:30:10;;;;;;;1.42;0.60;;;;;;;9.16;100.00;100325.09;10349401;28;20519;-74
2023/03/23 10:35:19;;;;;;;4.00;0.90;;;;;;;9.42;100.00;100322.72;10340372;28;20398;-74
2023/03/23 10:40:24;;;;;;;1.98;0.98;;;;;;;9.39;100.00;100339.19;10324597;28;20035;-75
2023/03/23 10:45:29;;;;;;;5.47;1.60;;;;;;;9.40;100.00;100341.84;10359308;28;20066;-74
2023/03/23 10:50:32;;;;;;;2.55;1.02;;;;;;;9.35;100.00;100353.81;10331254;28;20041;-75
2023/03/23 10:55:38;;;;;;;2.83;1.13;;;;;;;9.13;100.00;100325.84;10296352;28;20041;-75
2023/03/23 11:00:44;;;;;;;4.35;1.40;;;;;;;9.22;100.00;100321.03;10336871;28;20050;-75
2023/03/23 11:05:57;;;;;;;6.13;2.38;;;;;;;9.48;100.00;100326.53;10294666;28;20092;-76
2023/03/23 11:11:07;;;;;;;5.65;1.40;;;;;;;9.64;100.00;100337.63;10301738;28;20401;-75
2023/03/23 11:16:08;;;;;;;1.38;0.80;;;;;;;9.86;100.00;100338.53;10305697;28;20493;-75
2023/03/23 11:21:11;;;;;;;2.63;0.83;;;;;;;10.20;100.00;100332.09;10303539;28;20112;-75
2023/03/23 11:26:39;;;;;;;5.38;1.08;;;;;;;11.13;100.00;100317.34;10353769;28;20108;-76
2023/03/23 11:31:41;;;;;;;1.90;0.88;;;;;;;11.67;100.00;100285.16;10355220;28;20041;-76
2023/03/23 11:36:52;;;;;;;;;;;;;;;11.38;100.00;100292.03;10338730;28;20030;-76
2023/03/23 11:41:53;;;;;;;7.38;0.90;;;;;;;11.00;100.00;100318.63;10356376;28;19958;-76
2023/03/23 11:47:12;;;;;;;3.45;1.13;;;;;;;10.89;100.00;100319.94;10298578;28;20401;-76
2023/03/23 11:52:48;;;;;;;5.05;1.85;;;;;;;11.04;100.00;100310.03;10352341;28;20049;-76
2023/03/23 11:57:49;;;;;;;5.50;1.67;;;;;;;11.38;100.00;100313.00;10324615;28;20042;-76
2023/03/23 12:02:56;;;;;;;6.47;2.03;;;;;;;11.42;100.00;100320.13;10339174;28;20452;-76
2023/03/23 12:08:16;;;;;;;4.18;2.65;;;;;;;11.28;100.00;100324.84;10314751;28;20109;-76
2023/03/23 12:13:39;;;;;;;4.03;1.67;;;;;;;11.43;100.00;100319.28;10341158;28;20367;-76
2023/03/23 12:19:03;;;;;;;6.20;2.75;;;;;;;12.02;100.00;100310.81;10331833;28;20124;-76
2023/03/23 12:24:40;;;;;;;10.07;3.30;;;;;;;12.16;100.00;100306.00;10338441;28;20077;-76
2023/03/23 12:30:05;;;;;;;5.07;2.50;;;;;;;12.80;100.00;100302.72;10306487;28;20041;-76
2023/03/23 12:35:11;;;;;;;13.45;2.22;;;;;;;14.27;100.00;100258.34;10308422;28;20533;-77
2023/03/23 12:40:50;;;;;;;6.60;2.72;;;;;;;15.16;100.00;100242.66;10344207;28;20038;-77
2023/03/23 12:45:53;;;;;;;8.73;2.58;;;;;;;15.89;100.00;100255.38;10337062;28;20105;-77
2023/03/23 12:51:23;;;;;;;5.95;2.30;;;;;;;14.71;100.00;100263.72;10311481;28;20039;-77
2023/03/23 12:56:30;;;;;;;3.95;1.70;;;;;;;15.64;100.00;100240.84;10349327;28;20177;-77
2023/03/23 13:01:39;;;;;;;6.43;1.90;;;;;;;15.40;100.00;100243.09;10342438;28;20042;-77
2023/03/23 13:06:42;;;;;;;5.80;1.85;;;;;;;15.06;100.00;100229.31;10332186;28;20034;-77
2023/03/23 13:11:43;;;;;;;12.50;2.60;;;;;;;14.53;100.00;100248.38;10326730;28;20181;-77
2023/03/23 13:17:19;;;;;;;3.92;2.30;;;;;;;14.05;100.00;100258.72;10325608;28;20095;-77
2023/03/23 13:22:42;;;;;;;4.78;2.03;;;;;;;13.62;100.00;100271.72;10327710;28;20053;-77
2023/03/23 13:27:43;;;;;;;5.18;2.25;;;;;;;13.21;100.00;100263.59;10323221;28;20184;-77
2023/03/23 13:32:45;;;;;;;6.28;2.58;;;;;;;12.84;100.00;100262.56;10295447;28;20112;-76
2023/03/23 13:37:47;;;;;;;8.33;3.30;;;;;;;12.25;100.00;100264.31;10309834;28;20048;-75
2023/03/23 13:42:53;;;;;;;10.15;4.45;;;;;;;11.90;100.00;100285.94;10327919;28;20109;-76
2023/03/23 13:48:05;;;;;;;8.25;3.47;;;;;;;13.43;100.00;100272.97;10316349;28;20046;-76
2023/03/23 13:53:13;;;;;;;5.15;2.20;;;;;;;14.46;100.00;100228.03;10307553;28;20168;-77
2023/03/23 13:58:24;;;;;;;11.30;2.95;;;;;;;13.69;100.00;100230.69;10327144;28;20429;-77
2023/03/23 14:03:27;;;;;;;4.18;2.15;;;;;;;13.64;100.00;100242.81;10328758;28;20073;-77
2023/03/23 14:08:27;;;;;;;9.15;2.08;;;;;;;13.38;100.00;100223.75;10348008;28;20034;-77
2023/03/23 14:13:41;;;;;;;6.35;2.92;;;;;;;13.43;100.00;100244.06;10342199;28;20042;-77
2023/03/23 14:18:42;;;;;;;4.00;1.75;;;;;;;13.71;100.00;100233.38;10340432;28;20038;-77
2023/03/23 14:23:43;;;;;;;8.43;2.70;;;;;;;13.87;100.00;100224.09;10339552;28;20118;-77
2023/03/23 14:28:46;;;;;;;4.88;2.15;;;;;;;15.92;100.00;100201.75;10341545;28;20173;-77
2023/03/23 14:33:48;;;;;;;6.82;2.75;;;;;;;17.26;100.00;100201.69;10338530;28;20453;-77
2023/03/23 14:38:59;;;;;;;7.78;2.88;;;;;;;17.62;100.00;100194.94;10339711;28;20042;-77
2023/03/23 14:44:00;;;;;;;3.70;1.53;;;;;;;17.54;100.00;100180.75;10339614;28;20412;-77
2023/03/23 14:49:03;;;;;;;5.25;2.53;;;;;;;17.76;100.00;100163.28;10349380;28;20312;-76
2023/03/23 14:54:07;;;;;;;3.03;1.50;;;;;;;18.00;100.00;100170.53;10306886;28;20041;-76
2023/03/23 14:59:10;;;;;;;4.82;1.40;;;;;;;17.55;100.00;100167.53;10318485;28;20154;-75
2023/03/23 15:04:20;;;;;;;8.13;2.05;;;;;;;17.49;100.00;100162.19;10286223;28;20081;-78
2023/03/23 15:09:22;;;;;;;4.60;2.17;;;;;;;17.09;100.00;100160.09;10317666;28;20045;-76
2023/03/23 15:14:37;;;;;;;7.05;1.85;;;;;;;15.92;100.00;100180.66;10324575;28;20054;-77
2023/03/23 15:19:40;;;;;;;10.43;2.58;;;;;;;14.68;100.00;100182.88;10320452;28;20030;-77
2023/03/23 15:24:41;;;;;;;9.15;2.40;;;;;;;14.40;100.00;100184.06;10324777;28;20089;-77
2023/03/23 15:29:51;;;;;;;10.48;2.13;;;;;;;14.85;100.00;100163.91;10325911;28;20117;-77
2023/03/23 15:34:53;;;;;;;5.93;2.63;;;;;;;14.75;100.00;100148.78;10320940;28;20050;-76
2023/03/23 15:39:53;;;;;;;6.88;2.55;;;;;;;14.36;100.00;100132.22;10304335;28;20397;-76
2023/03/23 15:44:56;;;;;;;4.88;2.15;;;;;;;13.91;100.00;100131.25;10286692;28;20041;-75
2023/03/23 15:50:04;;;;;;;7.28;2.35;;;;;;;14.35;100.00;100117.28;10340651;28;20061;-76
2023/03/23 15:55:24;;;;;;;5.47;2.40;;;;;;;14.58;100.00;100120.34;10335386;28;20155;-77
2023/03/23 16:00:26;;;;;;;6.28;2.83;;;;;;;14.65;100.00;100119.59;10323132;28;20128;-76
2023/03/23 16:05:27;;;;;;;7.78;2.60;;;;;;;14.25;100.00;100131.97;10345290;28;20508;-76
2023/03/23 16:10:27;;;;;;;5.13;2.25;;;;;;;14.21;100.00;100133.66;10325739;28;20041;-76
2023/03/23 16:15:28;;;;;;;6.13;2.30;;;;;;;14.04;100.00;100127.16;10329984;28;20493;-76
2023/03/23 16:20:29;;;;;;;5.07;2.20;;;;;;;13.71;100.00;100138.69;10313868;28;20113;-75
2023/03/23 16:25:29;;;;;;;7.38;2.00;;;;;;;13.42;100.00;100139.75;10359680;28;20042;-75
2023/03/23 16:30:32;;;;;;;8.52;2.55;;;;;;;13.19;100.00;100145.31;10343573;28;20069;-75
2023/03/23 16:35:33;;;;;;;10.57;2.67;;;;;;;12.97;100.00;100143.88;10334527;28;20053;-75
2023/03/23 16:40:34;;;;;;;5.32;2.03;;;;;;;12.86;100.00;100155.84;10341984;28;20038;-78
2023/03/23 16:45:39;;;;;;;11.85;2.30;;;;;;;13.05;100.00;100151.94;10322034;28;20133;-77
2023/03/23 16:50:39;;;;;;;6.90;1.88;;;;;;;13.17;100.00;100160.13;10327111;28;20042;-77
2023/03/23 16:55:40;;;;;;;9.13;2.55;;;;;;;13.14;100.00;100152.19;10341956;28;20256;-78
2023/03/23 17:00:41;;;;;;;13.70;3.55;;;;;;;13.10;100.00;100145.06;10335369;28;20125;-77
2023/03/23 17:05:42;;;;;;;13.65;3.75;;;;;;;13.07;100.00;100150.25;10279966;28;20059;-77
2023/03/23 17:10:42;;;;;;;6.95;2.00;;;;;;;12.80;100.00;100145.16;10290944;28;20034;-78
2023/03/23 17:15:43;;;;;;;5.75;2.50;;;;;;;12.59;100.00;100144.59;10309971;28;20090;-78
2023/03/23 17:20:44;;;;;;;4.43;1.80;;;;;;;12.42;100.00;100138.00;10308430;28;20049;-78
2023/03/23 17:25:45;;;;;;;7.03;2.40;;;;;;;12.56;100.00;100136.63;10299700;28;20042;-77
2023/03/23 17:30:46;;;;;;;7.25;2.00;;;;;;;12.50;100.00;100143.47;10319283;28;20166;-77
2023/03/23 17:35:50;;;;;;;6.50;3.17;;;;;;;12.31;100.00;100141.19;10285294;28;20182;-78
2023/03/23 17:41:00;;;;;;;5.55;2.75;;;;;;;12.29;100.00;100142.00;10279952;28;20039;-77
2023/03/23 17:46:01;;;;;;;6.05;2.35;;;;;;;12.26;100.00;100140.16;10321919;28;20038;-77
2023/03/23 17:51:01;;;;;;;7.38;2.70;;;;;;;12.30;100.00;100143.78;10309712;28;20046;-77
2023/03/23 17:56:02;;;;;;;6.80;2.15;;;;;;;12.28;100.00;100132.38;10319804;28;20042;-77
2023/03/23 18:01:03;;;;;;;10.47;2.70;;;;;;;12.31;100.00;100127.19;10310096;28;20058;-77
2023/03/23 18:06:07;;;;;;;7.13;2.65;;;;;;;12.37;100.00;100137.88;10294984;28;20046;-78
2023/03/23 18:11:07;;;;;;;6.13;3.15;;;;;;;12.33;100.00;100133.38;10319126;28;20116;-78
2023/03/23 18:16:08;;;;;;;8.15;3.22;;;;;;;12.20;100.00;100113.75;10318163;28;20543;-78
2023/03/23 18:21:09;;;;;;;7.82;2.70;;;;;;;12.19;100.00;100109.34;10274877;28;20552;-77
2023/03/23 18:26:11;;;;;;;8.15;3.25;;;;;;;12.23;100.00;100103.34;10310923;28;20057;-77
2023/03/23 18:31:14;;;;;;;12.80;4.72;;;;;;;12.09;100.00;100107.31;10303853;28;20038;-77
2023/03/23 18:36:17;;;;;;;12.10;6.00;;;;;;;11.92;100.00;100104.19;10302838;28;20461;-78
2023/03/23 18:41:17;;;;;;;6.90;2.78;;;;;;;11.81;100.00;100102.13;10264227;28;20043;-77
2023/03/23 18:46:18;;;;;;;11.38;2.70;;;;;;;11.82;100.00;100088.16;10306255;28;20126;-78
2023/03/23 18:51:19;;;;;;;7.90;2.42;;;;;;;11.81;100.00;100088.09;10298981;28;20048;-77
2023/03/23 18:56:19;;;;;;;5.88;2.38;;;;;;;11.89;100.00;100082.25;10312232;28;20132;-77
2023/03/23 19:01:20;;;;;;;19.13;3.03;;;;;;;12.07;100.00;100069.66;10319939;28;20042;-77
2023/03/23 19:06:24;;;;;;;7.10;2.42;;;;;;;12.11;100.00;100067.19;10315303;28;20030;-77
2023/03/23 19:11:25;;;;;;;5.38;2.20;;;;;;;11.95;100.00;100075.41;10303740;28;20039;-77
2023/03/23 19:16:25;;;;;;;9.65;2.90;;;;;;;11.85;100.00;100064.66;10300650;28;20394;-77
2023/03/23 19:21:26;;;;;;;10.73;3.08;;;;;;;11.74;100.00;100069.56;10318255;28;20092;-77
2023/03/23 19:26:29;;;;;;;6.57;2.83;;;;;;;11.99;100.00;100053.69;10315374;28;20122;-77
2023/03/23 19:31:29;;;;;;;9.55;2.15;;;;;;;12.06;100.00;100047.81;10317957;28;20493;-78
2023/03/23 19:36:30;;;;;;;9.23;3.65;;;;;;;12.08;100.00;100042.59;10322398;28;20133;-77
2023/03/23 19:41:31;;;;;;;10.30;3.28;;;;;;;12.09;100.00;100034.78;10326306;28;20925;-77
2023/03/23 19:46:32;;;;;;;7.68;1.85;;;;;;;12.07;100.00;100038.19;10320284;28;20042;-78
2023/03/23 19:51:33;;;;;;;4.03;1.70;;;;;;;12.07;100.00;100027.69;10313316;28;20122;-76
2023/03/23 19:56:36;;;;;;;4.88;1.67;;;;;;;12.14;100.00;100017.44;10314511;28;20034;-78
2023/03/23 20:01:38;;;;;;;7.35;3.05;;;;;;;12.24;100.00;99994.06;10306480;28;20039;-79
2023/03/23 20:06:38;;;;;;;5.85;1.88;;;;;;;12.29;100.00;100005.59;10340982;28;20045;-78
2023/03/23 20:11:39;;;;;;;4.45;1.65;;;;;;;12.25;100.00;100001.97;10347390;28;20062;-79
2023/03/23 20:16:40;;;;;;;7.47;2.45;;;;;;;12.28;100.00;100001.19;10348636;28;20034;-78
2023/03/23 20:21:40;;;;;;;4.28;1.88;;;;;;;12.20;100.00;99995.72;10347460;28;20510;-78
2023/03/23 20:26:42;;;;;;;8.40;1.88;;;;;;;12.26;100.00;99993.25;10347340;28;20104;-78
2023/03/23 20:31:44;;;;;;;4.97;1.90;;;;;;;12.32;100.00;99985.53;10346862;28;20145;-77
2023/03/23 20:36:44;;;;;;;5.78;2.10;;;;;;;12.18;100.00;99985.19;10363543;28;20034;-78
2023/03/23 20:41:46;;;;;;;5.93;1.88;;;;;;;12.16;100.00;99991.22;10347383;28;20038;-78
2023/03/23 20:46:47;;;;;;;6.30;1.57;;;;;;;12.06;100.00;99971.75;10347184;28;20041;-78
2023/03/23 20:51:47;;;;;;;5.90;2.55;;;;;;;11.98;100.00;99979.34;10309322;28;20030;-78
2023/03/23 20:56:48;;;;;;;6.05;1.70;;;;;;;12.11;100.00;99966.59;10319217;28;20044;-78
2023/03/23 21:01:49;;;;;;;4.82;2.28;;;;;;;12.22;100.00;99975.66;10326982;28;20190;-78
2023/03/23 21:06:50;;;;;;;11.20;3.03;;;;;;;12.10;100.00;99983.19;10288607;28;20039;-77
2023/03/23 21:11:51;;;;;;;4.80;2.33;;;;;;;12.01;100.00;99975.97;10312901;28;20622;-77
2023/03/23 21:16:51;;;;;;;6.20;2.33;;;;;;;11.96;100.00;99980.19;10344144;28;20061;-78
2023/03/23 21:21:53;;;;;;;5.35;1.60;;;;;;;11.87;100.00;99976.44;10344424;28;20046;-78
2023/03/23 21:26:54;;;;;;;4.25;2.05;;;;;;;11.70;100.00;99978.56;10332778;28;20093;-78
2023/03/23 21:31:55;;;;;;;4.50;1.95;;;;;;;11.58;100.00;99980.84;10269238;28;20081;-78
2023/03/23 21:36:56;;;;;;;7.35;2.17;;;;;;;11.41;100.00;99970.75;10286692;28;20063;-77
2023/03/23 21:41:58;;;;;;;7.07;1.77;;;;;;;11.11;100.00;99966.34;10322546;28;20533;-78
2023/03/23 21:47:00;;;;;;;5.68;1.95;;;;;;;10.92;100.00;99970.13;10308181;28;20390;-78
2023/03/23 21:52:02;;;;;;;4.10;1.65;;;;;;;10.68;100.00;99965.00;10329851;28;20041;-78
2023/03/23 21:57:02;;;;;;;4.43;1.97;;;;;;;10.40;100.00;99967.59;10322657;28;20060;-78
2023/03/23 22:02:03;;;;;;;7.35;2.05;;;;;;;10.35;100.00;99956.06;10321997;28;20049;-77
2023/03/23 22:07:03;;;;;;;4.53;2.47;;;;;;;10.28;100.00;99957.56;10333071;28;20042;-78
2023/03/23 22:12:04;;;;;;;8.05;3.22;;;;;;;10.20;100.00;99948.56;10333589;28;20076;-78
2023/03/23 22:17:06;;;;;;;7.72;2.33;;;;;;;10.12;100.00;99948.31;10347373;28;20046;-77
2023/03/23 22:22:06;;;;;;;6.33;2.37;;;;;;;10.07;100.00;99954.19;10322090;28;20157;-77
2023/03/23 22:27:07;;;;;;;10.13;2.90;;;;;;;9.94;100.00;99948.53;10345326;28;20285;-77
2023/03/23 22:32:07;;;;;;;10.70;4.07;;;;;;;9.88;100.00;99931.75;10336977;28;20490;-76
2023/03/23 22:37:08;;;;;;;5.20;2.75;;;;;;;9.81;100.00;99934.16;10340839;28;20465;-76
2023/03/23 22:42:08;;;;;;;6.40;2.30;;;;;;;9.75;100.00;99926.09;10319928;28;20046;-76
2023/03/23 22:47:09;;;;;;;8.20;2.75;;;;;;;9.78;100.00;99913.13;10358180;28;20468;-77
2023/03/23 22:52:09;;;;;;;4.78;2.75;;;;;;;9.73;100.00;99916.41;10341703;28;20049;-77
2023/03/23 22:57:10;;;;;;;5.13;2.38;;;;;;;9.77;100.00;99913.97;10325932;28;20037;-76
2023/03/23 23:02:10;;;;;;;8.57;3.95;;;;;;;9.79;100.00;99899.25;10321156;28;20058;-75
2023/03/23 23:07:13;;;;;;;5.78;2.80;;;;;;;9.80;100.00;99893.19;10302665;28;20390;-77